Flight Track Log - Related Links

Times and Time Zones

All times are in EDT time to prevent confusion due to time zone crossing. See the N818GM flight status page for this flight to view local times or setup timezone preferences in your user account.

Time Position Orientation Groundspeed Altitude Reporting Facility
EDT Latitude Longitude Course Direction KTS MPH feet Rate Location/Type
Thu 01:38:00 PM 30.5046 -84.3121 134° Southeast  Level FlightAware Approximate
Thu 01:39:00 PM 30.4722 -84.2732 134° Southeast  Level FlightAware Approximate
Thu 01:40:00 PM 30.4440 -84.2303 126° Southeast  Level FlightAware Approximate
Thu 01:41:00 PM 30.4166 -84.1866 126° Southeast  Level FlightAware Approximate
Thu 01:42:00 PM 30.3893 -84.1429 126° Southeast  Level FlightAware Approximate
Thu 01:43:00 PM 30.3601 -84.1008 130° Southeast  Level FlightAware Approximate
Thu 01:44:00 PM 30.3286 -84.0567 130° Southeast  Level FlightAware Approximate
Thu 01:45:00 PM 30.2972 -84.0125 128° Southeast  Level FlightAware Approximate
Thu 01:46:00 PM 30.2671 -83.9672 128° Southeast  Level FlightAware Approximate
Thu 01:47:00 PM 30.2369 -83.9220 128° Southeast  Level FlightAware Approximate
Thu 01:47:05 PM 30.2617 -84.0014 133° Southeast 162 186 6,300  Level Jacksonville Center
Thu 01:48:00 PM 30.2068 -83.8767 128° Southeast  Level FlightAware Approximate
Thu 01:48:05 PM 30.2308 -83.9600 131° Southeast 162 186 7,000  Level Jacksonville Center
Thu 01:49:00 PM 30.1766 -83.8315 128° Southeast  Level FlightAware Approximate
Thu 01:49:05 PM 30.1997 -83.9139 128° Southeast 162 186 7,000  Level Jacksonville Center
Thu 01:50:00 PM 30.1441 -83.7885 133° Southeast  Level FlightAware Approximate
Thu 01:50:05 PM 30.1689 -83.8681 128° Southeast 173 199 6,900  Level Jacksonville Center
Thu 01:51:00 PM 30.1106 -83.7465 133° Southeast  Level FlightAware Approximate
Thu 01:51:05 PM 30.1358 -83.8219 130° Southeast 179 206 7,000  Level Jacksonville Center
Thu 01:52:00 PM 30.0778 -83.7055 133° Southeast  Level FlightAware Approximate
Thu 01:52:05 PM 30.1028 -83.7761 130° Southeast 185 213 7,000  Level Jacksonville Center
Thu 01:53:05 PM 30.0717 -83.7278 127° Southeast 185 213 7,000  Level Jacksonville Center
Thu 01:54:05 PM 30.0386 -83.6819 130° Southeast 185 213 7,000  Level Jacksonville Center
Thu 01:55:05 PM 30.0056 -83.6336 128° Southeast 185 213 7,000  Level Jacksonville Center
Thu 01:56:05 PM 29.9722 -83.5878 130° Southeast 185 213 7,000  Level Jacksonville Center
Thu 01:57:05 PM 29.9414 -83.5397 127° Southeast 185 213 7,000  Level Jacksonville Center
Thu 01:58:05 PM 29.9103 -83.4964 130° Southeast 185 213 7,000  Level Jacksonville Center
Thu 01:59:05 PM 29.8769 -83.4483 129° Southeast 185 213 7,000  Level Jacksonville Center
Thu 02:00:05 PM 29.8439 -83.4003 128° Southeast 185 213 7,000  Level Jacksonville Center
Thu 02:01:05 PM 29.8106 -83.3544 130° Southeast 185 213 7,000  Level Jacksonville Center
Thu 02:02:05 PM 29.7711 -83.3233 146° Southeast 185 213 7,000  Level Jacksonville Center
Thu 02:03:05 PM 29.7208 -83.3231 180° South 169 194 7,000  Level Jacksonville Center
Thu 02:04:05 PM 29.6708 -83.3206 178° South 174 200 7,000  Level Jacksonville Center
Thu 02:05:05 PM 29.6206 -83.3203 180° South 180 207 7,000  Level Jacksonville Center
Thu 02:06:05 PM 29.5728 -83.3128 172° South 180 207 7,000  Level Jacksonville Center
Thu 02:07:05 PM 29.5247 -83.2958 163° South 180 207 7,000  Level Jacksonville Center
Thu 02:08:05 PM 29.4808 -83.2814 164° South 180 207 7,000  Level Jacksonville Center
Thu 02:09:05 PM 29.4350 -83.2669 165° South 180 207 7,000  Level Jacksonville Center
Thu 02:10:05 PM 29.3892 -83.2478 160° South 180 207 7,000  Level Jacksonville Center
Thu 02:11:05 PM 29.3433 -83.2236 155° Southeast 180 207 7,000  Level Jacksonville Center
Thu 02:12:05 PM 29.3017 -83.1975 151° Southeast 180 207 7,000  Level Jacksonville Center
Thu 02:13:05 PM 29.2600 -83.1711 151° Southeast 180 207 7,000 -50 Level Jacksonville Center
Thu 02:14:05 PM 29.2161 -83.1447 152° Southeast 175 201 6,900 -50 Descending Jacksonville Center
Thu 02:15:05 PM 29.1725 -83.1186 152° Southeast 175 201 6,900  Level Jacksonville Center
Thu 02:16:05 PM 29.1286 -83.0947 155° Southeast 175 201 6,900  Level Jacksonville Center
Thu 02:17:05 PM 29.0847 -83.0708 155° Southeast 175 201 6,900  Level Jacksonville Center
Thu 02:18:05 PM 29.0411 -83.0444 152° Southeast 175 201 6,900  Level Jacksonville Center
Thu 02:19:05 PM 28.9972 -83.0183 153° Southeast 175 201 6,900  Level Jacksonville Center
Thu 02:20:05 PM 28.9533 -82.9969 157° South 175 201 6,900  Level Jacksonville Center
Thu 02:21:05 PM 28.9075 -82.9756 158° South 175 201 6,900  Level Jacksonville Center
Thu 02:22:05 PM 28.8617 -82.9519 156° South 175 201 6,900  Level Jacksonville Center
Thu 02:23:05 PM 28.8178 -82.9328 159° South 175 201 6,900  Level Jacksonville Center
Thu 02:26:00 PM 28.7337 -82.8879 155° Southeast  Level FlightAware Approximate
Thu 02:33:00 PM 28.4344 -82.7281 155° Southeast  Level FlightAware Approximate
Thu 02:34:00 PM 28.3916 -82.7053 155° Southeast  Level FlightAware Approximate
Thu 02:35:00 PM 28.3489 -82.6825 155° Southeast  Level FlightAware Approximate
Thu 02:36:00 PM 28.3061 -82.6597 155° Southeast  Level FlightAware Approximate
Thu 02:37:00 PM 28.2634 -82.6370 155° Southeast  Level FlightAware Approximate
Thu 02:38:00 PM 28.2206 -82.6142 155° Southeast  Level FlightAware Approximate
Thu 02:39:00 PM 28.1778 -82.5915 155° Southeast  Level FlightAware Approximate
Thu 02:40:00 PM 28.1351 -82.5688 155° Southeast  Level FlightAware Approximate
Thu 02:41:00 PM 28.0923 -82.5461 155° Southeast  Level FlightAware Approximate
Thu 02:42:00 PM 28.0495 -82.5235 155° Southeast  Level FlightAware Approximate
Thu 02:43:00 PM 28.0068 -82.5008 155° Southeast  Level FlightAware Approximate
Thu 02:44:00 PM 27.9640 -82.4782 155° Southeast  Level FlightAware Approximate
Thu 02:45:00 PM 27.9212 -82.4556 155° Southeast  Level FlightAware Approximate
Thu 02:46:00 PM 27.8784 -82.4330 155° Southeast  Level FlightAware Approximate
Thu 02:47:00 PM 27.8356 -82.4105 155° Southeast  Level FlightAware Approximate
Thu 02:48:00 PM 27.7928 -82.3879 155° Southeast  Level FlightAware Approximate
Thu 02:49:00 PM 27.7500 -82.3654 155° Southeast  Level FlightAware Approximate
Thu 02:50:00 PM 27.7072 -82.3428 155° Southeast  Level FlightAware Approximate
Thu 02:51:00 PM 27.6644 -82.3203 155° Southeast  Level FlightAware Approximate
Thu 02:52:00 PM 27.6216 -82.2979 155° Southeast  Level FlightAware Approximate
Thu 02:53:00 PM 27.5788 -82.2754 155° Southeast  Level FlightAware Approximate
Thu 02:54:00 PM 27.5359 -82.2529 155° Southeast  Level FlightAware Approximate
Thu 02:55:00 PM 27.4931 -82.2305 155° Southeast  Level FlightAware Approximate
Thu 02:56:00 PM 27.4504 -82.2078 154° Southeast  Level FlightAware Approximate
Thu 02:57:00 PM 27.4079 -82.1845 154° Southeast  Level FlightAware Approximate
Thu 02:58:00 PM 27.3655 -82.1613 154° Southeast  Level FlightAware Approximate
Thu 02:59:00 PM 27.3230 -82.1381 154° Southeast  Level FlightAware Approximate
Thu 03:00:00 PM 27.2805 -82.1149 154° Southeast  Level FlightAware Approximate
Thu 03:01:00 PM 27.2380 -82.0918 154° Southeast  Level FlightAware Approximate
Thu 03:02:00 PM 27.1955 -82.0686 154° Southeast  Level FlightAware Approximate
Thu 03:03:00 PM 27.1530 -82.0455 154° Southeast  Level FlightAware Approximate
Thu 03:04:00 PM 27.1105 -82.0224 154° Southeast  Level FlightAware Approximate
Thu 03:05:00 PM 27.0676 -82.0004 156° South  Level FlightAware Approximate
Thu 03:06:00 PM 27.0244 -81.9788 156° South  Level FlightAware Approximate
Thu 03:07:00 PM 26.9813 -81.9572 156° South  Level FlightAware Approximate
Thu 03:08:00 PM 26.9382 -81.9357 156° South  Level FlightAware Approximate
Thu 03:09:00 PM 26.8951 -81.9141 156° South  Level FlightAware Approximate
Thu 03:10:00 PM 26.8519 -81.8926 156° South  Level FlightAware Approximate
Thu 03:11:00 PM 26.8091 -81.8704 154° Southeast  Level FlightAware Approximate
Thu 03:12:00 PM 26.7665 -81.8476 155° Southeast  Level FlightAware Approximate
Thu 03:13:00 PM 26.7238 -81.8248 155° Southeast  Level FlightAware Approximate
Thu 03:14:00 PM 26.6812 -81.8021 155° Southeast  Level FlightAware Approximate
Thu 03:15:00 PM 26.6386 -81.7794 155° Southeast  Level FlightAware Approximate
Thu 03:16:00 PM 26.5959 -81.7567 155° Southeast  Level FlightAware Approximate
Thu 03:17:00 PM 26.5509 -81.7581 193° South  Level FlightAware Approximate
Thu 03:18:00 PM 26.5045 -81.7667 180° South  Level FlightAware Approximate
Thu 03:19:00 PM 26.4573 -81.7667 180° South  Level FlightAware Approximate
Thu 03:20:00 PM 26.4101 -81.7667 180° South  Level FlightAware Approximate
Thu 03:21:00 PM 26.3628 -81.7667 180° South  Level FlightAware Approximate
Thu 03:22:00 PM 26.3156 -81.7667 180° South  Level FlightAware Approximate
Thu 03:23:00 PM 26.2684 -81.7667 180° South  Level FlightAware Approximate
Thu 03:24:00 PM 26.2212 -81.7667 180° South  Level FlightAware Approximate
Thu 03:25:00 PM 26.1740 -81.7667 180° South  Level FlightAware Approximate
Thu 03:26:00 PM 26.1500 -81.7667 180° South  Level FlightAware Approximate
Thu 03:27:00 PM 26.1524 -81.7756 180° South  Level Estimated
Thu 03:28:00 PM 26.1524 -81.7756 180° South  Level Estimated
Thu 03:29:00 PM 26.1524 -81.7756 180° South  Level Estimated
Thu 03:30:00 PM 26.1524 -81.7756 180° South  Level Estimated
Thu 03:31:00 PM 26.1524 -81.7756 180° South  Level Estimated
Thu 03:32:00 PM 26.1524 -81.7756 180° South  Level Estimated
Thu 03:33:00 PM 26.1524 -81.7756 180° South  Level Estimated

Login

Don't have an account? Register now (free) for customized features, flight alerts, and more!